createdAt,value
2022-12-11T06:57:23.626Z,10.60
2022-12-11T07:09:40.329Z,11.23
2022-12-11T07:12:08.250Z,11.58
2022-12-11T07:14:36.145Z,12.24
2022-12-11T07:17:03.965Z,12.98
2022-12-11T07:19:31.597Z,13.55
2022-12-11T07:21:59.295Z,13.57
2022-12-11T07:24:27.153Z,13.86
2022-12-11T07:26:55.157Z,14.25
2022-12-11T07:29:22.766Z,15.28
2022-12-11T07:31:50.776Z,15.25
2022-12-11T07:34:18.521Z,14.88
2022-12-11T07:36:46.326Z,14.98
2022-12-11T07:39:14.162Z,14.59
2022-12-11T07:41:42.051Z,14.70
2022-12-11T07:44:11.834Z,14.26
2022-12-11T07:46:39.801Z,15.22
2022-12-11T07:49:07.403Z,15.92
2022-12-11T07:51:36.007Z,16.37
2022-12-11T07:54:08.636Z,16.36
2022-12-11T07:56:36.646Z,16.02
2022-12-11T07:59:04.926Z,16.30
2022-12-11T08:01:36.631Z,16.39
2022-12-11T08:04:08.114Z,16.51
2022-12-11T08:06:37.275Z,16.39
2022-12-11T08:09:06.453Z,16.19
2022-12-11T08:11:34.351Z,15.95
2022-12-11T08:14:03.344Z,15.36
2022-12-11T08:16:31.083Z,15.65
2022-12-11T08:18:59.019Z,16.07
2022-12-11T08:21:27.439Z,15.76
2022-12-11T08:23:55.284Z,16.16
2022-12-11T08:26:30.414Z,15.85
2022-12-11T08:28:58.352Z,16.08
2022-12-11T08:31:26.077Z,16.26
2022-12-11T08:33:55.395Z,16.48
2022-12-11T08:36:23.262Z,16.61
2022-12-11T08:38:51.151Z,16.37
2022-12-11T08:41:26.773Z,16.29
2022-12-11T08:43:55.445Z,16.32
2022-12-11T08:46:25.315Z,16.93
2022-12-11T08:48:53.281Z,17.32
2022-12-11T08:51:23.602Z,17.07
2022-12-11T08:53:51.500Z,17.26
2022-12-11T08:56:20.252Z,16.99
2022-12-11T08:58:47.970Z,16.96
2022-12-11T09:01:18.119Z,16.62
2022-12-11T09:03:46.340Z,15.59
2022-12-11T09:06:16.227Z,16.16
2022-12-11T09:08:50.394Z,15.64
2022-12-11T09:11:22.247Z,16.60
2022-12-11T09:13:51.047Z,16.78
2022-12-11T09:16:20.391Z,16.94
2022-12-11T09:18:48.775Z,16.83
2022-12-11T09:21:18.076Z,16.76
2022-12-11T09:23:46.149Z,16.76
2022-12-11T09:26:15.310Z,17.10
2022-12-11T09:28:46.747Z,17.31
2022-12-11T09:31:17.249Z,16.76
2022-12-11T09:33:45.041Z,16.69
2022-12-11T09:36:14.007Z,16.23
2022-12-11T09:38:44.157Z,16.49
2022-12-11T09:41:23.665Z,16.72
2022-12-11T09:43:51.567Z,16.57
2022-12-11T09:46:21.619Z,16.19
2022-12-11T09:48:53.815Z,15.89
2022-12-11T09:51:28.831Z,16.07
2022-12-11T09:54:00.254Z,16.59
2022-12-11T09:56:30.730Z,16.11
2022-12-11T09:59:03.536Z,15.67
2022-12-11T10:01:37.654Z,15.83
2022-12-11T10:04:30.194Z,15.87
2022-12-11T10:07:16.816Z,15.53
2022-12-11T10:10:01.223Z,15.57
2022-12-11T10:12:56.280Z,15.47
2022-12-11T10:15:33.878Z,15.26
2022-12-11T10:18:05.171Z,15.14
2022-12-11T10:20:39.553Z,14.82
2022-12-11T10:23:08.348Z,14.69
2022-12-11T10:25:37.611Z,14.58
2022-12-11T10:28:31.747Z,14.23
2022-12-11T10:31:18.470Z,14.15
2022-12-11T10:33:52.269Z,14.13
2022-12-11T10:36:24.252Z,13.98
2022-12-11T10:38:51.944Z,14.25
2022-12-11T10:41:40.655Z,14.83
2022-12-11T10:44:28.484Z,14.82
2022-12-11T10:47:12.297Z,14.64
2022-12-11T10:49:56.830Z,14.78
2022-12-11T10:52:36.192Z,14.78
2022-12-11T10:55:22.887Z,14.89
2022-12-11T10:58:06.466Z,14.88
2022-12-11T11:00:39.874Z,15.17
2022-12-11T11:03:23.831Z,15.37
2022-12-11T11:06:15.036Z,15.47
2022-12-11T11:08:49.276Z,15.51
2022-12-11T11:11:24.507Z,15.65
2022-12-11T11:13:53.146Z,15.74
2022-12-11T11:16:21.257Z,15.54
2022-12-11T11:18:55.650Z,15.11
2022-12-11T11:21:24.641Z,15.28
2022-12-11T11:23:53.676Z,15.70
2022-12-11T11:26:23.190Z,16.00
2022-12-11T11:28:54.917Z,16.16
2022-12-11T11:31:31.124Z,16.32
2022-12-11T11:34:06.455Z,16.19
2022-12-11T11:36:35.613Z,16.03
2022-12-11T11:39:11.606Z,16.09
2022-12-11T11:42:06.525Z,15.80
2022-12-11T11:44:37.451Z,15.35
2022-12-11T11:47:27.665Z,15.08
2022-12-11T11:50:14.980Z,14.87
2022-12-11T11:52:52.945Z,14.78
2022-12-11T11:55:31.673Z,14.94
2022-12-11T11:58:07.824Z,15.08
2022-12-11T12:00:35.535Z,14.96
2022-12-11T12:03:04.304Z,15.24
2022-12-11T12:05:52.367Z,15.28
2022-12-11T12:08:36.396Z,15.28
2022-12-11T12:11:26.080Z,15.14
2022-12-11T12:14:03.435Z,14.87
2022-12-11T12:19:30.918Z,14.79
2022-12-11T12:21:58.758Z,14.91
2022-12-11T12:24:34.861Z,14.63
2022-12-11T12:27:50.088Z,14.54
2022-12-11T12:30:13.260Z,14.51
2022-12-11T12:32:57.900Z,14.63
2022-12-11T12:35:38.208Z,14.58
2022-12-11T12:38:24.824Z,14.39
2022-12-11T12:41:04.724Z,14.32
2022-12-11T12:44:17.316Z,14.23
2022-12-11T12:46:51.105Z,14.20
2022-12-11T12:49:36.053Z,14.02
2022-12-11T12:52:04.000Z,13.83
2022-12-11T12:54:31.884Z,13.69
2022-12-11T12:57:00.055Z,13.62
2022-12-11T12:59:27.949Z,13.53
2022-12-11T13:01:58.006Z,13.54
2022-12-11T13:04:58.486Z,13.59
2022-12-11T13:07:30.622Z,13.52
2022-12-11T13:09:59.948Z,13.41
2022-12-11T13:12:44.911Z,13.35
2022-12-11T13:15:35.545Z,13.21
2022-12-11T13:18:05.288Z,13.13
2022-12-11T13:20:33.405Z,12.99
2022-12-11T13:23:07.454Z,12.92
2022-12-11T13:25:50.208Z,12.84
2022-12-11T13:28:22.372Z,12.80
2022-12-11T13:31:05.568Z,12.84
2022-12-11T13:33:33.538Z,12.88
2022-12-11T13:36:16.760Z,12.92
2022-12-11T13:38:49.444Z,12.93
2022-12-11T13:41:17.029Z,12.89
2022-12-11T13:43:44.949Z,12.89
2022-12-11T13:46:12.711Z,12.88
2022-12-11T13:49:00.985Z,12.86
2022-12-11T13:51:30.679Z,12.79
2022-12-11T13:54:16.714Z,12.80
2022-12-11T13:57:13.155Z,12.73
2022-12-11T13:59:50.599Z,12.65
2022-12-11T14:02:21.711Z,12.66
2022-12-11T14:04:50.915Z,12.66
2022-12-11T14:07:27.303Z,12.72
2022-12-11T14:10:22.311Z,12.73
2022-12-11T14:12:52.080Z,12.66
2022-12-11T14:15:20.083Z,12.58
2022-12-11T14:17:52.018Z,12.59
2022-12-11T14:20:22.789Z,12.59
2022-12-11T14:22:52.976Z,12.56
2022-12-11T14:25:25.456Z,12.56
2022-12-11T14:27:54.470Z,12.47
2022-12-11T14:30:27.621Z,12.39
2022-12-11T14:32:58.025Z,12.25
2022-12-11T14:35:38.728Z,12.19
2022-12-11T14:38:11.151Z,12.20
2022-12-11T14:40:42.678Z,12.27
2022-12-11T14:43:18.501Z,12.22
2022-12-11T14:45:47.518Z,12.24
2022-12-11T14:48:31.153Z,12.20
2022-12-11T14:51:00.153Z,12.13
2022-12-11T14:53:40.527Z,12.10
2022-12-11T14:56:09.278Z,12.10
2022-12-11T14:58:43.159Z,12.03
2022-12-11T15:01:27.400Z,11.92
2022-12-11T15:04:14.409Z,11.86
2022-12-11T15:06:48.454Z,11.79
2022-12-11T15:09:35.724Z,11.69
2022-12-11T15:12:19.411Z,11.52
2022-12-11T15:14:50.663Z,11.29
2022-12-11T15:17:18.911Z,11.13
2022-12-11T15:19:54.354Z,11.22
2022-12-11T15:22:24.692Z,11.26
2022-12-11T15:24:53.391Z,11.30
2022-12-11T15:27:23.864Z,11.23
2022-12-11T15:29:51.712Z,11.23
2022-12-11T15:32:20.588Z,11.26
2022-12-11T15:34:56.408Z,11.26
2022-12-11T15:37:24.092Z,11.25
2022-12-11T15:39:52.429Z,11.13
2022-12-11T15:42:26.990Z,11.11
2022-12-11T15:44:55.619Z,11.04
2022-12-11T15:47:32.224Z,10.91
2022-12-11T15:50:18.774Z,10.80
2022-12-11T15:52:46.726Z,10.65
2022-12-11T15:55:14.505Z,10.67
2022-12-11T15:57:53.586Z,10.79
2022-12-11T16:00:21.932Z,10.72
2022-12-11T16:02:49.564Z,10.59
2022-12-11T16:05:17.748Z,10.42
2022-12-11T16:07:45.406Z,10.30
2022-12-11T16:10:15.515Z,10.20
2022-12-11T16:12:43.589Z,10.08
2022-12-11T16:15:15.249Z,10.04
2022-12-11T16:17:45.263Z,10.06
2022-12-11T16:20:13.697Z,10.10
2022-12-11T16:22:41.342Z,10.13
2022-12-11T16:25:09.157Z,10.18
2022-12-11T16:27:37.314Z,10.42
2022-12-11T16:30:05.354Z,10.61
2022-12-11T16:32:33.130Z,10.49
2022-12-11T16:35:01.316Z,10.48
2022-12-11T16:37:28.985Z,10.57
2022-12-11T16:39:57.184Z,10.63
2022-12-11T16:42:24.850Z,10.65
2022-12-11T16:44:52.443Z,10.62
2022-12-11T16:47:20.249Z,10.73
2022-12-11T16:49:47.910Z,10.76
2022-12-11T16:52:21.793Z,10.95
